Time;durP1;ratioP1;P1;durP2;ratioP2;P2;SDS_P1;SDS_P2;PMS_P1;PMS_P2;Temp;Humidity;BMP_temperature;BMP_pressure;BME280_temperature;BME280_humidity;BME280_pressure;Samples;Min_cycle;Max_cycle;Signal;HPM_P1;HPM_P2
2023/03/10 00:00:50;;;;;;;3.55;0.90;;;;;;;;;;6221230;22;20008;-95
2023/03/10 00:03:16;;;;;;;0.00;0.00;;;;;;;;;;6219094;22;20308;-96
2023/03/10 00:05:42;;;;;;;0.05;0.05;;;;;;;;;;6245321;22;20030;-95
2023/03/10 00:08:11;;;;;;;0.00;0.00;;;;;;;;;;6218321;22;20019;-96
2023/03/10 00:10:37;;;;;;;0.00;0.00;;;;;;;;;;6222650;22;20634;-96
2023/03/10 00:13:04;;;;;;;0.00;0.00;;;;;;;;;;6219545;22;20008;-95
2023/03/10 00:15:30;;;;;;;0.00;0.00;;;;;;;;;;6220328;22;20015;-96
2023/03/10 00:17:56;;;;;;;0.00;0.00;;;;;;;;;;6244169;22;20053;-96
2023/03/10 00:20:23;;;;;;;0.00;0.00;;;;;;;;;;6266360;22;20098;-96
2023/03/10 00:22:49;;;;;;;0.00;0.00;;;;;;;;;;6275144;22;20415;-95
2023/03/10 00:25:19;;;;;;;0.00;0.00;;;;;;;;;;6247146;22;20363;-96
2023/03/10 00:27:45;;;;;;;0.00;0.00;;;;;;;;;;6250455;22;20027;-96
2023/03/10 00:30:34;;;;;;;0.00;0.00;;;;;;;;;;6250449;22;20060;-95
2023/03/10 00:32:58;;;;;;;0.00;0.00;;;;;;;;;;6302300;22;20423;-96
2023/03/10 00:35:24;;;;;;;0.00;0.00;;;;;;;;;;6251388;22;20116;-96
2023/03/10 00:37:50;;;;;;;0.00;0.00;;;;;;;;;;6253378;22;20027;-96
2023/03/10 00:40:16;;;;;;;0.00;0.00;;;;;;;;;;6253374;22;20033;-96
2023/03/10 00:42:43;;;;;;;0.28;0.28;;;;;;;;;;6253714;22;20183;-96
2023/03/10 00:45:10;;;;;;;0.00;0.00;;;;;;;;;;6281185;22;20033;-96
2023/03/10 00:47:36;;;;;;;0.00;0.00;;;;;;;;;;6259417;22;20069;-96
2023/03/10 00:50:03;;;;;;;0.00;0.00;;;;;;;;;;6288554;22;20004;-96
2023/03/10 00:52:32;;;;;;;0.00;0.00;;;;;;;;;;6302358;22;20015;-96
2023/03/10 00:54:59;;;;;;;0.00;0.00;;;;;;;;;;6278844;22;20007;-96
2023/03/10 00:57:25;;;;;;;0.10;0.10;;;;;;;;;;6277229;22;19999;-96
2023/03/10 00:59:52;;;;;;;0.10;0.10;;;;;;;;;;6303413;22;20066;-96
2023/03/10 01:02:19;;;;;;;0.90;0.90;;;;;;;;;;6304867;22;20019;-96
2023/03/10 01:04:46;;;;;;;6.72;2.17;;;;;;;;;;6273526;22;20022;-96
2023/03/10 01:07:12;;;;;;;0.00;0.00;;;;;;;;;;6296932;22;20006;-95
2023/03/10 01:09:41;;;;;;;0.00;0.00;;;;;;;;;;6262715;22;20026;-95
2023/03/10 01:12:08;;;;;;;0.00;0.00;;;;;;;;;;6260988;22;20046;-96
2023/03/10 01:14:34;;;;;;;0.00;0.00;;;;;;;;;;6259644;22;20011;-96
2023/03/10 01:17:02;;;;;;;0.43;0.43;;;;;;;;;;6284630;22;20007;-96
2023/03/10 01:19:29;;;;;;;0.00;0.00;;;;;;;;;;6283629;22;20065;-96
2023/03/10 01:21:58;;;;;;;0.00;0.00;;;;;;;;;;6257306;22;20019;-96
2023/03/10 01:24:27;;;;;;;0.00;0.00;;;;;;;;;;6282125;22;20057;-96
2023/03/10 01:26:56;;;;;;;0.00;0.00;;;;;;;;;;6255981;22;20692;-96
2023/03/10 01:29:23;;;;;;;0.00;0.00;;;;;;;;;;6281740;22;20448;-96
2023/03/10 01:31:49;;;;;;;0.00;0.00;;;;;;;;;;6257021;22;20016;-96
2023/03/10 01:34:22;;;;;;;0.00;0.00;;;;;;;;;;6280943;22;20447;-96
2023/03/10 01:36:48;;;;;;;0.00;0.00;;;;;;;;;;6257671;22;20011;-96
2023/03/10 01:39:14;;;;;;;0.00;0.00;;;;;;;;;;6282007;22;20094;-96
2023/03/10 01:41:55;;;;;;;0.00;0.00;;;;;;;;;;6257459;22;20007;-96
2023/03/10 01:44:21;;;;;;;0.00;0.00;;;;;;;;;;6258594;22;20049;-95
2023/03/10 01:46:49;;;;;;;0.00;0.00;;;;;;;;;;6262142;22;20220;-95
2023/03/10 01:49:32;;;;;;;;;;;;;;;;;;;;;
2023/03/10 01:52:03;;;;;;;0.00;0.00;;;;;;;;;;6310976;22;20038;-96
2023/03/10 01:54:31;;;;;;;0.00;0.00;;;;;;;;;;6281309;22;20078;-95
2023/03/10 01:56:58;;;;;;;0.00;0.00;;;;;;;;;;6282739;22;20011;-95
2023/03/10 01:59:26;;;;;;;0.00;0.00;;;;;;;;;;6278358;22;20038;-96
2023/03/10 02:02:37;;;;;;;0.13;0.13;;;;;;;;;;6254797;22;20022;-96
2023/03/10 02:04:47;;;;;;;0.00;0.00;;;;;;;;;;6279697;22;20041;-95
2023/03/10 02:07:14;;;;;;;0.00;0.00;;;;;;;;;;6279888;22;20008;-96
2023/03/10 02:09:55;;;;;;;0.00;0.00;;;;;;;;;;6252758;22;20337;-96
2023/03/10 02:12:22;;;;;;;0.00;0.00;;;;;;;;;;6281366;22;20014;-95
2023/03/10 02:14:49;;;;;;;0.00;0.00;;;;;;;;;;6255576;22;20018;-96
2023/03/10 02:17:20;;;;;;;0.00;0.00;;;;;;;;;;6280851;22;20057;-95
2023/03/10 02:19:46;;;;;;;0.00;0.00;;;;;;;;;;6279912;22;20102;-95
2023/03/10 02:22:14;;;;;;;0.08;0.08;;;;;;;;;;6279721;22;20008;-96
2023/03/10 02:24:50;;;;;;;0.00;0.00;;;;;;;;;;6252795;22;20010;-95
2023/03/10 02:27:21;;;;;;;0.70;0.70;;;;;;;;;;6279149;22;20003;-95
2023/03/10 02:30:01;;;;;;;0.00;0.00;;;;;;;;;;6279888;22;20014;-96
2023/03/10 02:32:29;;;;;;;0.00;0.00;;;;;;;;;;6278720;22;20007;-95
2023/03/10 02:34:55;;;;;;;0.00;0.00;;;;;;;;;;6280237;22;20007;-95
2023/03/10 02:37:30;;;;;;;0.00;0.00;;;;;;;;;;6253324;22;20007;-95
2023/03/10 02:40:00;;;;;;;0.00;0.00;;;;;;;;;;6280261;22;20019;-96
2023/03/10 02:42:29;;;;;;;0.00;0.00;;;;;;;;;;6279653;22;20011;-95
2023/03/10 02:44:59;;;;;;;0.00;0.00;;;;;;;;;;6280522;22;19999;-96
2023/03/10 02:47:28;;;;;;;0.00;0.00;;;;;;;;;;6279578;22;20030;-96
2023/03/10 02:49:54;;;;;;;0.00;0.00;;;;;;;;;;6282012;22;20318;-96
2023/03/10 02:52:31;;;;;;;0.00;0.00;;;;;;;;;;6255197;22;20008;-96
2023/03/10 02:55:00;;;;;;;0.00;0.00;;;;;;;;;;6281062;22;20015;-96
2023/03/10 02:57:26;;;;;;;0.00;0.00;;;;;;;;;;6279433;22;20007;-96
2023/03/10 03:00:07;;;;;;;0.00;0.00;;;;;;;;;;6252340;22;20396;-95
2023/03/10 03:02:36;;;;;;;0.00;0.00;;;;;;;;;;6252229;22;20122;-96
2023/03/10 03:05:10;;;;;;;0.00;0.00;;;;;;;;;;6275266;22;20003;-95
2023/03/10 03:07:39;;;;;;;0.00;0.00;;;;;;;;;;6252167;22;20073;-96
2023/03/10 03:10:13;;;;;;;0.00;0.00;;;;;;;;;;6255477;22;20492;-96
2023/03/10 03:12:49;;;;;;;0.00;0.00;;;;;;;;;;6253829;22;20023;-96
2023/03/10 03:15:18;;;;;;;;;;;;;;;;;;6256576;22;20011;-96
2023/03/10 03:17:44;;;;;;;0.00;0.00;;;;;;;;;;6278030;22;20419;-96
2023/03/10 03:20:14;;;;;;;0.00;0.00;;;;;;;;;;6277707;22;20425;-96
2023/03/10 03:25:30;;;;;;;0.00;0.00;;;;;;;;;;6275134;22;20035;-96
2023/03/10 03:28:18;;;;;;;0.00;0.00;;;;;;;;;;6279979;22;20010;-96
2023/03/10 03:30:45;;;;;;;0.00;0.00;;;;;;;;;;6285612;22;20011;-96
2023/03/10 03:33:11;;;;;;;0.00;0.00;;;;;;;;;;6278066;22;20007;-96
2023/03/10 03:35:43;;;;;;;0.00;0.00;;;;;;;;;;6252441;22;20011;-96
2023/03/10 03:38:10;;;;;;;0.10;0.10;;;;;;;;;;6254408;22;20069;-95
2023/03/10 03:40:36;;;;;;;0.00;0.00;;;;;;;;;;6280774;22;20003;-96
2023/03/10 03:43:03;;;;;;;0.00;0.00;;;;;;;;;;6279675;22;20007;-96
2023/03/10 03:45:38;;;;;;;0.00;0.00;;;;;;;;;;6254343;22;20007;-96
2023/03/10 03:48:04;;;;;;;0.00;0.00;;;;;;;;;;6254044;22;20014;-96
2023/03/10 03:50:34;;;;;;;0.00;0.00;;;;;;;;;;6281186;22;20052;-96
2023/03/10 03:53:01;;;;;;;0.00;0.00;;;;;;;;;;6281026;22;20003;-96
2023/03/10 03:55:28;;;;;;;0.00;0.00;;;;;;;;;;6282582;22;20014;-96
2023/03/10 03:57:54;;;;;;;0.00;0.00;;;;;;;;;;6257188;22;20063;-96
2023/03/10 04:00:22;;;;;;;0.00;0.00;;;;;;;;;;6280377;22;20027;-96
2023/03/10 04:02:51;;;;;;;0.00;0.00;;;;;;;;;;6276268;22;20108;-96
2023/03/10 04:05:23;;;;;;;0.00;0.00;;;;;;;;;;6254965;22;20436;-96
2023/03/10 04:07:49;;;;;;;0.03;0.03;;;;;;;;;;6257205;22;20448;-96
2023/03/10 04:10:20;;;;;;;0.00;0.00;;;;;;;;;;6280683;22;20313;-96
2023/03/10 04:12:46;;;;;;;0.00;0.00;;;;;;;;;;6282868;22;20026;-96
2023/03/10 04:15:15;;;;;;;1.25;1.10;;;;;;;;;;6285233;22;20023;-96
2023/03/10 04:17:41;;;;;;;0.00;0.00;;;;;;;;;;6284587;22;20018;-96
2023/03/10 04:20:08;;;;;;;0.00;0.00;;;;;;;;;;6289286;22;20010;-96
2023/03/10 04:22:35;;;;;;;0.00;0.00;;;;;;;;;;6287638;22;20437;-96
2023/03/10 04:25:01;;;;;;;5.38;1.30;;;;;;;;;;6270158;22;20012;-96
2023/03/10 04:27:31;;;;;;;0.00;0.00;;;;;;;;;;6303702;22;20007;-96
2023/03/10 04:29:58;;;;;;;0.00;0.00;;;;;;;;;;6303971;22;20007;-96
2023/03/10 04:32:25;;;;;;;0.00;0.00;;;;;;;;;;6304603;22;20014;-96
2023/03/10 04:34:52;;;;;;;0.00;0.00;;;;;;;;;;6279631;22;19988;-96
2023/03/10 04:37:20;;;;;;;0.00;0.00;;;;;;;;;;6277704;22;20123;-96
2023/03/10 04:39:46;;;;;;;0.00;0.00;;;;;;;;;;6299312;22;20046;-96
2023/03/10 04:42:13;;;;;;;0.00;0.00;;;;;;;;;;6295414;22;20007;-96
2023/03/10 04:44:42;;;;;;;0.00;0.00;;;;;;;;;;6290783;22;20031;-96
2023/03/10 04:47:08;;;;;;;0.00;0.00;;;;;;;;;;6264797;22;20066;-96
2023/03/10 04:49:38;;;;;;;0.00;0.00;;;;;;;;;;6261880;22;20069;-96
2023/03/10 04:52:05;;;;;;;0.45;0.45;;;;;;;;;;6284698;22;20071;-96
2023/03/10 04:54:34;;;;;;;0.00;0.00;;;;;;;;;;6286475;22;20011;-95
2023/03/10 04:57:04;;;;;;;0.00;0.00;;;;;;;;;;6259959;22;20105;-96
2023/03/10 04:59:39;;;;;;;0.00;0.00;;;;;;;;;;6262483;22;20012;-96
2023/03/10 05:02:06;;;;;;;0.15;0.15;;;;;;;;;;6263223;22;20021;-96
2023/03/10 05:04:32;;;;;;;0.00;0.00;;;;;;;;;;6258668;22;20003;-96
2023/03/10 05:06:58;;;;;;;0.00;0.00;;;;;;;;;;6256870;22;20429;-95
2023/03/10 05:09:28;;;;;;;0.00;0.00;;;;;;;;;;6279920;22;20163;-96
2023/03/10 05:11:56;;;;;;;0.28;0.28;;;;;;;;;;6254164;22;20035;-96
2023/03/10 05:14:23;;;;;;;0.00;0.00;;;;;;;;;;6253264;22;20094;-96
2023/03/10 05:16:49;;;;;;;0.00;0.00;;;;;;;;;;6255441;22;20445;-96
2023/03/10 05:19:15;;;;;;;0.00;0.00;;;;;;;;;;6254689;22;20021;-96
2023/03/10 05:21:41;;;;;;;0.00;0.00;;;;;;;;;;6279884;22;20019;-96
2023/03/10 05:24:08;;;;;;;0.00;0.00;;;;;;;;;;6254913;22;20013;-96
2023/03/10 05:26:34;;;;;;;0.00;0.00;;;;;;;;;;6256447;22;20511;-96
2023/03/10 05:29:01;;;;;;;0.00;0.00;;;;;;;;;;6256308;22;20320;-96
2023/03/10 05:31:29;;;;;;;0.32;0.32;;;;;;;;;;6283984;22;20004;-96
2023/03/10 05:33:56;;;;;;;0.32;0.32;;;;;;;;;;6259826;22;20011;-96
2023/03/10 05:36:22;;;;;;;0.03;0.03;;;;;;;;;;6260766;22;20023;-96
2023/03/10 05:38:54;;;;;;;0.00;0.00;;;;;;;;;;6269718;22;20003;-96
2023/03/10 05:41:20;;;;;;;0.00;0.00;;;;;;;;;;6296427;22;20050;-96
2023/03/10 05:43:46;;;;;;;3.50;1.45;;;;;;;;;;6269048;22;20007;-96
2023/03/10 05:46:19;;;;;;;0.00;0.00;;;;;;;;;;6296507;22;20014;-96
2023/03/10 05:48:45;;;;;;;0.00;0.00;;;;;;;;;;6271943;22;20019;-96
2023/03/10 05:51:12;;;;;;;0.00;0.00;;;;;;;;;;6295236;22;20026;-96
2023/03/10 05:53:44;;;;;;;0.45;0.45;;;;;;;;;;6294449;22;20004;-96
2023/03/10 05:56:18;;;;;;;0.00;0.00;;;;;;;;;;6265408;22;20026;-96
2023/03/10 05:58:49;;;;;;;2.30;2.17;;;;;;;;;;6286029;22;20441;-96
2023/03/10 06:01:26;;;;;;;0.00;0.00;;;;;;;;;;6265781;22;20439;-96
2023/03/10 06:04:01;;;;;;;0.00;0.00;;;;;;;;;;6302283;22;20003;-96
2023/03/10 06:07:02;;;;;;;;;;;;;;;;;;;;;
2023/03/10 06:09:17;;;;;;;0.00;0.00;;;;;;;;;;6317482;22;20047;-96
2023/03/10 06:12:03;;;;;;;0.00;0.00;;;;;;;;;;6302066;22;20059;-96
2023/03/10 06:14:33;;;;;;;0.00;0.00;;;;;;;;;;6276261;22;20007;-96
2023/03/10 06:17:45;;;;;;;0.00;0.00;;;;;;;;;;6278849;22;20003;-96
2023/03/10 06:20:36;;;;;;;15.50;6.85;;;;;;;;;;6182705;22;20017;-96
2023/03/10 06:24:06;;;;;;;;;;;;;;;;;;;;;
2023/03/10 06:26:41;;;;;;;24.35;10.15;;;;;;;;;;6114741;23;20021;-96
2023/03/10 06:29:17;;;;;;;26.27;9.90;;;;;;;;;;6124178;23;20043;-96
2023/03/10 06:31:51;;;;;;;31.00;11.27;;;;;;;;;;6146385;23;20006;-96
2023/03/10 06:34:31;;;;;;;32.65;12.68;;;;;;;;;;6158355;23;20009;-96
2023/03/10 06:37:06;;;;;;;33.50;13.65;;;;;;;;;;6237607;23;20015;-96
2023/03/10 06:39:36;;;;;;;36.13;13.27;;;;;;;;;;6208839;23;19996;-96
2023/03/10 06:42:15;;;;;;;34.78;11.88;;;;;;;;;;6206561;23;20020;-96
2023/03/10 06:44:43;;;;;;;24.05;10.88;;;;;;;;;;6176714;23;20062;-92
2023/03/10 06:47:18;;;;;;;27.30;11.63;;;;;;;;;;6192529;23;20028;-93
2023/03/10 06:50:00;;;;;;;28.42;12.20;;;;;;;;;;6189908;22;20040;-92
2023/03/10 06:52:51;;;;;;;32.97;12.88;;;;;;;;;;6277933;22;20003;-96
2023/03/10 06:55:21;;;;;;;30.88;11.35;;;;;;;;;;6290150;22;20014;-96
2023/03/10 06:57:48;;;;;;;29.33;11.43;;;;;;;;;;6287679;22;20008;-96
2023/03/10 07:00:18;;;;;;;25.65;9.90;;;;;;;;;;6286231;22;20003;-96
2023/03/10 07:02:44;;;;;;;32.85;12.05;;;;;;;;;;6257982;22;20057;-96
2023/03/10 07:05:12;;;;;;;29.48;12.45;;;;;;;;;;6230123;22;20023;-96
2023/03/10 07:07:51;;;;;;;50.17;13.63;;;;;;;;;;6278824;22;20014;-96
2023/03/10 07:10:21;;;;;;;39.28;12.93;;;;;;;;;;6278305;22;20000;-96
2023/03/10 07:12:53;;;;;;;43.50;14.60;;;;;;;;;;6227999;22;20007;-96
2023/03/10 07:15:21;;;;;;;40.15;15.15;;;;;;;;;;6279264;22;20010;-96
2023/03/10 07:17:57;;;;;;;45.13;14.77;;;;;;;;;;6279976;22;20059;-95
2023/03/10 07:20:33;;;;;;;45.70;15.13;;;;;;;;;;6281615;22;20007;-95
2023/03/10 07:22:59;;;;;;;;;;;;;;;;;;6296405;22;20049;-96
2023/03/10 07:25:28;;;;;;;40.30;14.93;;;;;;;;;;6284203;22;20288;-96
2023/03/10 07:27:55;;;;;;;36.13;13.15;;;;;;;;;;6260768;22;20067;-96
2023/03/10 07:30:28;;;;;;;45.72;16.92;;;;;;;;;;6284492;22;20014;-96
2023/03/10 07:33:01;;;;;;;39.70;15.82;;;;;;;;;;6260608;22;20018;-96
2023/03/10 07:35:32;;;;;;;42.38;15.27;;;;;;;;;;6288390;22;20031;-96
2023/03/10 07:37:58;;;;;;;43.13;14.63;;;;;;;;;;6289626;22;20022;-96
2023/03/10 07:40:24;;;;;;;48.95;16.35;;;;;;;;;;6286396;22;20018;-95
2023/03/10 07:42:56;;;;;;;41.80;14.80;;;;;;;;;;6261885;22;20099;-96
2023/03/10 07:45:24;;;;;;;0.00;0.00;;;;;;;;;;6263551;22;20441;-96
2023/03/10 07:47:51;;;;;;;0.00;0.00;;;;;;;;;;6288131;22;20003;-96
2023/03/10 07:50:17;;;;;;;0.00;0.00;;;;;;;;;;6285313;22;20010;-96
2023/03/10 07:52:43;;;;;;;0.00;0.00;;;;;;;;;;6285730;22;20524;-96
2023/03/10 07:55:09;;;;;;;0.00;0.00;;;;;;;;;;6285838;22;20010;-96
2023/03/10 07:57:35;;;;;;;0.00;0.00;;;;;;;;;;6260026;22;20026;-96
2023/03/10 08:00:05;;;;;;;0.00;0.00;;;;;;;;;;6288452;22;20067;-96
2023/03/10 08:02:31;;;;;;;0.00;0.00;;;;;;;;;;6268705;22;20015;-96
2023/03/10 08:04:57;;;;;;;0.00;0.00;;;;;;;;;;6278706;22;19999;-96
2023/03/10 08:07:26;;;;;;;0.00;0.00;;;;;;;;;;6305342;22;20015;-96
2023/03/10 08:09:53;;;;;;;0.00;0.00;;;;;;;;;;6305452;22;19999;-96
2023/03/10 08:12:22;;;;;;;0.00;0.00;;;;;;;;;;6305548;22;20074;-96
2023/03/10 08:14:51;;;;;;;0.00;0.00;;;;;;;;;;6306704;22;19995;-96
2023/03/10 08:17:18;;;;;;;0.00;0.00;;;;;;;;;;6306393;22;20029;-96
2023/03/10 08:19:49;;;;;;;0.00;0.00;;;;;;;;;;6303095;22;20002;-96
2023/03/10 08:22:16;;;;;;;0.00;0.00;;;;;;;;;;6301825;22;20018;-96
2023/03/10 08:24:43;;;;;;;0.22;0.22;;;;;;;;;;6297733;22;20041;-96
2023/03/10 08:27:10;;;;;;;0.00;0.00;;;;;;;;;;6261634;22;20045;-96
2023/03/10 08:29:40;;;;;;;0.00;0.00;;;;;;;;;;6287848;22;20004;-96
2023/03/10 08:32:07;;;;;;;0.00;0.00;;;;;;;;;;6263415;22;20015;-96
2023/03/10 08:34:36;;;;;;;0.00;0.00;;;;;;;;;;6292582;22;20026;-96
2023/03/10 08:37:05;;;;;;;0.00;0.00;;;;;;;;;;6294722;22;20007;-96
2023/03/10 08:39:31;;;;;;;0.00;0.00;;;;;;;;;;6265185;22;20011;-96
2023/03/10 08:42:07;;;;;;;0.00;0.00;;;;;;;;;;6260926;22;20014;-96
2023/03/10 08:44:34;;;;;;;0.10;0.10;;;;;;;;;;6260923;22;20512;-96
2023/03/10 08:47:01;;;;;;;0.00;0.00;;;;;;;;;;6260824;22;20018;-96
2023/03/10 08:49:30;;;;;;;0.00;0.00;;;;;;;;;;6262795;22;20003;-96
2023/03/10 08:51:57;;;;;;;0.65;0.65;;;;;;;;;;6287682;22;20018;-95
2023/03/10 08:54:23;;;;;;;0.00;0.00;;;;;;;;;;6262856;22;20271;-95
2023/03/10 08:56:50;;;;;;;0.30;0.30;;;;;;;;;;6262591;22;20082;-96
2023/03/10 08:59:18;;;;;;;0.00;0.00;;;;;;;;;;6258068;22;20031;-96
2023/03/10 09:01:49;;;;;;;0.00;0.00;;;;;;;;;;6311543;22;20059;-95
2023/03/10 09:04:15;;;;;;;0.00;0.00;;;;;;;;;;6285927;22;20013;-96
2023/03/10 09:06:44;;;;;;;0.00;0.00;;;;;;;;;;6285847;22;20007;-95
2023/03/10 09:09:11;;;;;;;0.00;0.00;;;;;;;;;;6261437;22;20017;-95
2023/03/10 09:11:48;;;;;;;0.00;0.00;;;;;;;;;;6262177;22;20014;-95
2023/03/10 09:14:16;;;;;;;0.00;0.00;;;;;;;;;;6286043;22;20037;-96
2023/03/10 09:17:19;;;;;;;0.90;0.90;;;;;;;;;;6292291;22;20008;-96
2023/03/10 09:19:46;;;;;;;0.00;0.00;;;;;;;;;;6287412;22;20443;-96
2023/03/10 09:22:32;;;;;;;0.47;0.30;;;;;;;;;;6292161;22;20088;-92
2023/03/10 09:24:58;;;;;;;0.00;0.00;;;;;;;;;;6257210;22;20428;-91
2023/03/10 09:27:24;;;;;;;0.00;0.00;;;;;;;;;;6251698;22;20011;-90
2023/03/10 09:29:50;;;;;;;0.00;0.00;;;;;;;;;;6279026;22;20008;-92
2023/03/10 09:32:16;;;;;;;0.05;0.05;;;;;;;;;;6254188;22;20011;-92
2023/03/10 09:34:44;;;;;;;0.00;0.00;;;;;;;;;;6254086;22;20079;-91
2023/03/10 09:37:10;;;;;;;0.00;0.00;;;;;;;;;;6253191;22;20015;-91
2023/03/10 09:39:41;;;;;;;0.00;0.00;;;;;;;;;;6252680;22;20015;-92
2023/03/10 09:42:13;;;;;;;0.00;0.00;;;;;;;;;;6252556;22;20460;-91
2023/03/10 09:44:41;;;;;;;0.05;0.05;;;;;;;;;;6276439;22;19999;-92
2023/03/10 09:47:26;;;;;;;0.00;0.00;;;;;;;;;;6278112;22;20030;-92
2023/03/10 09:50:12;;;;;;;0.00;0.00;;;;;;;;;;6305343;22;20014;-91
2023/03/10 09:52:41;;;;;;;0.00;0.00;;;;;;;;;;6278627;22;20015;-91
2023/03/10 09:55:27;;;;;;;0.00;0.00;;;;;;;;;;6276992;22;20467;-91
2023/03/10 09:57:53;;;;;;;;;;;;;;;;;;6303173;22;20064;-91
2023/03/10 10:00:31;;;;;;;0.00;0.00;;;;;;;;;;6277357;22;19915;-91
2023/03/10 10:03:17;;;;;;;0.00;0.00;;;;;;;;;;6276034;22;20008;-92
2023/03/10 10:05:43;;;;;;;0.13;0.13;;;;;;;;;;6276269;22;19999;-91
2023/03/10 10:08:17;;;;;;;0.20;0.20;;;;;;;;;;6275929;22;20011;-91
2023/03/10 10:10:46;;;;;;;0.00;0.00;;;;;;;;;;6250751;22;20448;-91
2023/03/10 10:13:14;;;;;;;0.30;0.30;;;;;;;;;;6276022;22;20017;-92
2023/03/10 10:15:44;;;;;;;0.00;0.00;;;;;;;;;;6276612;22;20455;-91
2023/03/10 10:18:25;;;;;;;0.00;0.00;;;;;;;;;;6251684;22;20072;-91
2023/03/10 10:21:09;;;;;;;0.00;0.00;;;;;;;;;;6275989;22;20011;-90
2023/03/10 10:23:48;;;;;;;0.00;0.00;;;;;;;;;;6279613;22;20027;-90
2023/03/10 10:26:16;;;;;;;0.00;0.00;;;;;;;;;;6304012;22;20033;-91
2023/03/10 10:28:58;;;;;;;0.65;0.45;;;;;;;;;;6250704;22;20090;-91
2023/03/10 10:31:25;;;;;;;0.00;0.00;;;;;;;;;;6277560;22;20003;-91
2023/03/10 10:33:53;;;;;;;0.00;0.00;;;;;;;;;;6276481;22;20549;-90
2023/03/10 10:36:19;;;;;;;0.00;0.00;;;;;;;;;;6276887;22;20007;-92
2023/03/10 10:38:50;;;;;;;0.00;0.00;;;;;;;;;;6276226;22;20455;-91
2023/03/10 10:41:20;;;;;;;0.00;0.00;;;;;;;;;;6303296;22;20007;-91
2023/03/10 10:43:47;;;;;;;0.00;0.00;;;;;;;;;;6274015;22;20022;-92
2023/03/10 10:46:16;;;;;;;0.00;0.00;;;;;;;;;;6302738;22;20068;-91
2023/03/10 10:48:44;;;;;;;0.00;0.00;;;;;;;;;;6276751;22;20007;-91
2023/03/10 10:51:27;;;;;;;0.00;0.00;;;;;;;;;;6276406;22;19999;-91
2023/03/10 10:54:05;;;;;;;0.00;0.00;;;;;;;;;;6276124;22;20011;-92
2023/03/10 10:56:31;;;;;;;0.00;0.00;;;;;;;;;;6275849;22;20434;-92
2023/03/10 10:59:01;;;;;;;0.00;0.00;;;;;;;;;;6250296;22;20011;-91
2023/03/10 11:01:45;;;;;;;0.10;0.10;;;;;;;;;;6276238;22;20463;-91
2023/03/10 11:04:11;;;;;;;0.00;0.00;;;;;;;;;;6250557;22;20007;-91
2023/03/10 11:06:38;;;;;;;0.00;0.00;;;;;;;;;;6251871;22;20019;-92
2023/03/10 11:09:07;;;;;;;0.00;0.00;;;;;;;;;;6250734;22;20007;-91
2023/03/10 11:11:37;;;;;;;0.00;0.00;;;;;;;;;;6276734;22;20007;-92
2023/03/10 11:14:06;;;;;;;0.00;0.00;;;;;;;;;;6274492;22;20357;-91
2023/03/10 11:16:44;;;;;;;1.05;1.00;;;;;;;;;;6276418;22;20090;-91
2023/03/10 11:19:30;;;;;;;4.10;3.72;;;;;;;;;;6275476;22;20483;-92
2023/03/10 11:22:02;;;;;;;2.28;1.30;;;;;;;;;;6277415;22;20031;-91
2023/03/10 11:24:55;;;;;;;0.00;0.00;;;;;;;;;;6280128;22;20011;-91
2023/03/10 11:27:27;;;;;;;0.00;0.00;;;;;;;;;;6272644;22;20311;-91
2023/03/10 11:30:05;;;;;;;0.00;0.00;;;;;;;;;;6279440;22;20623;-92
2023/03/10 11:32:54;;;;;;;0.00;0.00;;;;;;;;;;6281889;22;20038;-93
2023/03/10 11:35:24;;;;;;;0.00;0.00;;;;;;;;;;6278306;22;20011;-92
2023/03/10 11:37:53;;;;;;;0.00;0.00;;;;;;;;;;6300423;22;20002;-92
2023/03/10 11:40:23;;;;;;;0.00;0.00;;;;;;;;;;6273205;22;20033;-91
2023/03/10 11:42:58;;;;;;;0.00;0.00;;;;;;;;;;6297110;22;19999;-91
2023/03/10 11:45:37;;;;;;;0.00;0.00;;;;;;;;;;6298371;22;20003;-92
2023/03/10 11:48:06;;;;;;;0.55;0.55;;;;;;;;;;6296008;22;20019;-96
2023/03/10 11:50:52;;;;;;;0.00;0.00;;;;;;;;;;6301951;22;20013;-96
2023/03/10 11:53:33;;;;;;;0.00;0.00;;;;;;;;;;6296156;22;20003;-96
2023/03/10 11:56:05;;;;;;;0.00;0.00;;;;;;;;;;6287418;22;20010;-93
2023/03/10 11:58:45;;;;;;;0.00;0.00;;;;;;;;;;6253367;22;20116;-93
2023/03/10 12:01:35;;;;;;;0.00;0.00;;;;;;;;;;6280758;22;20072;-93
2023/03/10 12:04:12;;;;;;;0.00;0.00;;;;;;;;;;6239379;22;20506;-93
2023/03/10 12:06:54;;;;;;;0.10;0.10;;;;;;;;;;6278885;22;20004;-93
2023/03/10 12:09:45;;;;;;;0.00;0.00;;;;;;;;;;6277180;22;20085;-93
2023/03/10 12:12:16;;;;;;;0.25;0.25;;;;;;;;;;6305452;22;20023;-92
2023/03/10 12:14:43;;;;;;;0.00;0.00;;;;;;;;;;6279104;22;20003;-93
2023/03/10 12:17:18;;;;;;;0.43;0.43;;;;;;;;;;6278048;22;20010;-93
2023/03/10 12:20:12;;;;;;;0.00;0.00;;;;;;;;;;6277762;22;20003;-93
2023/03/10 12:22:39;;;;;;;0.00;0.00;;;;;;;;;;6278679;22;20030;-92
2023/03/10 12:25:24;;;;;;;0.00;0.00;;;;;;;;;;6278540;22;20015;-93
2023/03/10 12:28:17;;;;;;;0.00;0.00;;;;;;;;;;6273325;22;19999;-93
2023/03/10 12:30:55;;;;;;;0.00;0.00;;;;;;;;;;6275242;22;20012;-93
2023/03/10 12:33:36;;;;;;;0.00;0.00;;;;;;;;;;6275711;22;20035;-93
2023/03/10 12:36:02;;;;;;;0.00;0.00;;;;;;;;;;6276334;22;20010;-93
2023/03/10 12:38:30;;;;;;;0.00;0.00;;;;;;;;;;6276010;22;20392;-93
2023/03/10 12:40:57;;;;;;;0.00;0.00;;;;;;;;;;6276853;22;20782;-93
2023/03/10 12:43:35;;;;;;;0.00;0.00;;;;;;;;;;6275097;22;20019;-93
2023/03/10 12:46:02;;;;;;;0.00;0.00;;;;;;;;;;6278112;22;20437;-93
2023/03/10 12:48:28;;;;;;;0.00;0.00;;;;;;;;;;6278124;22;20003;-92
2023/03/10 12:50:58;;;;;;;0.00;0.00;;;;;;;;;;6279184;22;20006;-92
2023/03/10 12:53:30;;;;;;;0.00;0.00;;;;;;;;;;6276586;22;20015;-93
2023/03/10 12:56:15;;;;;;;0.00;0.00;;;;;;;;;;6278172;22;20046;-93
2023/03/10 12:58:46;;;;;;;0.00;0.00;;;;;;;;;;6278048;22;20378;-92
2023/03/10 13:01:18;;;;;;;0.00;0.00;;;;;;;;;;6278181;22;20011;-93
2023/03/10 13:03:49;;;;;;;0.00;0.00;;;;;;;;;;6277517;22;20009;-92
2023/03/10 13:06:21;;;;;;;0.00;0.00;;;;;;;;;;6277325;22;20570;-93
2023/03/10 13:09:01;;;;;;;0.00;0.00;;;;;;;;;;6278356;22;20007;-92
2023/03/10 13:11:30;;;;;;;0.00;0.00;;;;;;;;;;6277559;22;20019;-92
2023/03/10 13:14:00;;;;;;;0.00;0.00;;;;;;;;;;6279261;22;20003;-92
2023/03/10 13:16:27;;;;;;;0.00;0.00;;;;;;;;;;6278562;22;20448;-92
2023/03/10 13:18:55;;;;;;;0.00;0.00;;;;;;;;;;6252625;22;20011;-91
2023/03/10 13:21:35;;;;;;;0.28;0.28;;;;;;;;;;6253781;22;20017;-92
2023/03/10 13:24:02;;;;;;;0.00;0.00;;;;;;;;;;6276786;22;20007;-92
2023/03/10 13:26:38;;;;;;;0.00;0.00;;;;;;;;;;6277909;22;20007;-93
2023/03/10 13:29:19;;;;;;;0.00;0.00;;;;;;;;;;6281032;22;20398;-92
2023/03/10 13:31:53;;;;;;;0.00;0.00;;;;;;;;;;6275185;22;20008;-92
2023/03/10 13:34:20;;;;;;;0.00;0.00;;;;;;;;;;6281696;22;20007;-93
2023/03/10 13:36:46;;;;;;;0.35;0.35;;;;;;;;;;6255913;22;20007;-92
2023/03/10 13:39:14;;;;;;;0.52;0.52;;;;;;;;;;6254546;22;20007;-92
2023/03/10 13:41:42;;;;;;;0.00;0.00;;;;;;;;;;6280449;22;20003;-94
2023/03/10 13:44:27;;;;;;;0.00;0.00;;;;;;;;;;6280310;22;20015;-93
2023/03/10 13:46:55;;;;;;;0.00;0.00;;;;;;;;;;6281437;22;20758;-94
2023/03/10 13:49:24;;;;;;;0.00;0.00;;;;;;;;;;6281974;22;20018;-93
2023/03/10 13:52:00;;;;;;;0.00;0.00;;;;;;;;;;6281172;22;20003;-93
2023/03/10 13:54:34;;;;;;;0.00;0.00;;;;;;;;;;6281081;22;20007;-93
2023/03/10 13:57:22;;;;;;;0.00;0.00;;;;;;;;;;6280837;22;20000;-93
2023/03/10 13:59:49;;;;;;;0.00;0.00;;;;;;;;;;6280823;22;20014;-94
2023/03/10 14:02:17;;;;;;;0.00;0.00;;;;;;;;;;6281087;22;20011;-94
2023/03/10 14:04:48;;;;;;;0.00;0.00;;;;;;;;;;6280737;22;20054;-94
2023/03/10 14:07:22;;;;;;;0.00;0.00;;;;;;;;;;6280429;22;20003;-94
2023/03/10 14:10:10;;;;;;;0.00;0.00;;;;;;;;;;6280457;22;20436;-94
2023/03/10 14:12:47;;;;;;;0.00;0.00;;;;;;;;;;6279251;22;20412;-94
2023/03/10 14:15:16;;;;;;;0.00;0.00;;;;;;;;;;6280582;22;20003;-94
2023/03/10 14:17:43;;;;;;;0.20;0.20;;;;;;;;;;6279961;22;20007;-93
2023/03/10 14:20:11;;;;;;;0.00;0.00;;;;;;;;;;6279517;22;20014;-93
2023/03/10 14:22:40;;;;;;;0.00;0.00;;;;;;;;;;6279263;22;20041;-92
2023/03/10 14:25:11;;;;;;;0.38;0.38;;;;;;;;;;6279842;22;20023;-93
2023/03/10 14:27:38;;;;;;;0.00;0.00;;;;;;;;;;6277719;22;20011;-94
2023/03/10 14:30:19;;;;;;;0.00;0.00;;;;;;;;;;6278986;22;19999;-94
2023/03/10 14:32:45;;;;;;;1.48;1.38;;;;;;;;;;6280190;22;20038;-93
2023/03/10 14:35:12;;;;;;;0.00;0.00;;;;;;;;;;6280624;22;20095;-93
2023/03/10 14:37:38;;;;;;;0.00;0.00;;;;;;;;;;6279643;22;20082;-93
2023/03/10 14:40:05;;;;;;;0.00;0.00;;;;;;;;;;6254639;22;20010;-93
2023/03/10 14:42:31;;;;;;;0.00;0.00;;;;;;;;;;6279149;22;20385;-93
2023/03/10 14:45:07;;;;;;;0.00;0.00;;;;;;;;;;6278781;22;20031;-94
2023/03/10 14:47:36;;;;;;;3.88;0.98;;;;;;;;;;6280889;22;20003;-94
2023/03/10 14:50:02;;;;;;;0.00;0.00;;;;;;;;;;6281108;22;20342;-94
2023/03/10 14:52:28;;;;;;;0.00;0.00;;;;;;;;;;6282128;22;20030;-94
2023/03/10 14:54:54;;;;;;;0.00;0.00;;;;;;;;;;6259160;22;20792;-94
2023/03/10 14:57:21;;;;;;;0.73;0.35;;;;;;;;;;6263790;22;20018;-94
2023/03/10 14:59:48;;;;;;;0.00;0.00;;;;;;;;;;6261828;22;20027;-94
2023/03/10 15:02:22;;;;;;;0.00;0.00;;;;;;;;;;6263576;22;20022;-94
2023/03/10 15:04:50;;;;;;;0.00;0.00;;;;;;;;;;6274096;22;20004;-95
2023/03/10 15:07:16;;;;;;;0.00;0.00;;;;;;;;;;6302406;22;20037;-94
2023/03/10 15:09:43;;;;;;;4.30;1.88;;;;;;;;;;6302845;22;20059;-95
2023/03/10 15:12:12;;;;;;;0.10;0.10;;;;;;;;;;6278048;22;19995;-94